Gandy, Nebraska
Current Conditions -  °F | °C
As of 11:35 AM on Saturday 22 Nov 2014 (Local Time) from KTIF Reporting Station
Clear Clear  
Wind Chill: 58°   Ceiling: Unl
Heat Index: 58°   Visibility: 10mi
Dew Point: 24°   Wind: 16mph
Humidity: 27%   Direction: 230°SW
Pressure: 29.64"   Gusts: 24mph
Location:  41.5665°N, 100.482°W
Report Text: KTIF 221735Z AUTO 23014G21KT 10SM CLR 15/M04 A2964 RMK AO2 T01461044
Loading
Personal Weather Stations






























Interactive Weather Map New forecast layout! Learn more

10-Day Weather Forecast

Advertisements
Track Severe Weather on mobile